sensor_id;sensor_type;location;lat;lon;timestamp;P1;durP1;ratioP1;P2;durP2;ratioP2
25187;SDS011;13141;50.414;8.050;2022-08-25T00:01:36;0.10;;;0.10;;
25187;SDS011;13141;50.414;8.050;2022-08-25T00:04:06;0.10;;;0.10;;
25187;SDS011;13141;50.414;8.050;2022-08-25T00:06:35;0.10;;;0.10;;
25187;SDS011;13141;50.414;8.050;2022-08-25T00:09:02;0.10;;;0.10;;
25187;SDS011;13141;50.414;8.050;2022-08-25T00:11:29;0.20;;;0.20;;
25187;SDS011;13141;50.414;8.050;2022-08-25T00:13:57;0.17;;;0.17;;
25187;SDS011;13141;50.414;8.050;2022-08-25T00:16:25;0.10;;;0.10;;
25187;SDS011;13141;50.414;8.050;2022-08-25T00:18:55;0.10;;;0.10;;
25187;SDS011;13141;50.414;8.050;2022-08-25T00:21:23;0.13;;;0.13;;
25187;SDS011;13141;50.414;8.050;2022-08-25T00:23:49;0.10;;;0.10;;
25187;SDS011;13141;50.414;8.050;2022-08-25T00:26:15;0.10;;;0.10;;
25187;SDS011;13141;50.414;8.050;2022-08-25T00:28:41;0.20;;;0.20;;
25187;SDS011;13141;50.414;8.050;2022-08-25T00:31:12;0.10;;;0.10;;
25187;SDS011;13141;50.414;8.050;2022-08-25T00:33:40;0.20;;;0.20;;
25187;SDS011;13141;50.414;8.050;2022-08-25T00:36:07;0.20;;;0.20;;
25187;SDS011;13141;50.414;8.050;2022-08-25T00:38:36;0.10;;;0.10;;
25187;SDS011;13141;50.414;8.050;2022-08-25T00:41:06;0.20;;;0.20;;
25187;SDS011;13141;50.414;8.050;2022-08-25T00:46:07;0.10;;;0.10;;
25187;SDS011;13141;50.414;8.050;2022-08-25T00:48:34;0.20;;;0.20;;
25187;SDS011;13141;50.414;8.050;2022-08-25T00:51:00;0.10;;;0.10;;
25187;SDS011;13141;50.414;8.050;2022-08-25T00:53:27;0.17;;;0.17;;
25187;SDS011;13141;50.414;8.050;2022-08-25T00:55:54;0.10;;;0.10;;
25187;SDS011;13141;50.414;8.050;2022-08-25T00:58:21;0.10;;;0.10;;
25187;SDS011;13141;50.414;8.050;2022-08-25T01:00:50;0.10;;;0.10;;
25187;SDS011;13141;50.414;8.050;2022-08-25T01:03:18;0.10;;;0.10;;
25187;SDS011;13141;50.414;8.050;2022-08-25T01:05:44;0.10;;;0.10;;
25187;SDS011;13141;50.414;8.050;2022-08-25T01:08:11;0.20;;;0.20;;
25187;SDS011;13141;50.414;8.050;2022-08-25T01:10:39;0.10;;;0.10;;
25187;SDS011;13141;50.414;8.050;2022-08-25T01:13:08;0.10;;;0.10;;
25187;SDS011;13141;50.414;8.050;2022-08-25T01:15:42;0.10;;;0.10;;
25187;SDS011;13141;50.414;8.050;2022-08-25T01:18:12;0.10;;;0.10;;
25187;SDS011;13141;50.414;8.050;2022-08-25T01:20:38;0.10;;;0.10;;
25187;SDS011;13141;50.414;8.050;2022-08-25T01:23:04;0.13;;;0.13;;
25187;SDS011;13141;50.414;8.050;2022-08-25T01:25:44;0.10;;;0.10;;
25187;SDS011;13141;50.414;8.050;2022-08-25T01:28:27;0.20;;;0.20;;
25187;SDS011;13141;50.414;8.050;2022-08-25T01:30:53;0.20;;;0.20;;
25187;SDS011;13141;50.414;8.050;2022-08-25T01:33:18;0.10;;;0.10;;
25187;SDS011;13141;50.414;8.050;2022-08-25T01:35:44;0.10;;;0.10;;
25187;SDS011;13141;50.414;8.050;2022-08-25T01:38:11;0.20;;;0.20;;
25187;SDS011;13141;50.414;8.050;2022-08-25T01:40:37;0.10;;;0.10;;
25187;SDS011;13141;50.414;8.050;2022-08-25T01:43:11;0.10;;;0.10;;
25187;SDS011;13141;50.414;8.050;2022-08-25T01:45:46;0.10;;;0.10;;
25187;SDS011;13141;50.414;8.050;2022-08-25T01:48:13;0.20;;;0.20;;
25187;SDS011;13141;50.414;8.050;2022-08-25T01:50:39;0.20;;;0.20;;
25187;SDS011;13141;50.414;8.050;2022-08-25T01:53:07;0.10;;;0.10;;
25187;SDS011;13141;50.414;8.050;2022-08-25T01:55:33;0.20;;;0.20;;
25187;SDS011;13141;50.414;8.050;2022-08-25T01:58:25;0.15;;;0.15;;
25187;SDS011;13141;50.414;8.050;2022-08-25T02:00:54;0.10;;;0.10;;
25187;SDS011;13141;50.414;8.050;2022-08-25T02:03:22;0.10;;;0.10;;
25187;SDS011;13141;50.414;8.050;2022-08-25T02:05:49;0.10;;;0.10;;
25187;SDS011;13141;50.414;8.050;2022-08-25T02:08:15;0.10;;;0.10;;
25187;SDS011;13141;50.414;8.050;2022-08-25T02:10:41;0.20;;;0.20;;
25187;SDS011;13141;50.414;8.050;2022-08-25T02:13:07;0.10;;;0.10;;
25187;SDS011;13141;50.414;8.050;2022-08-25T02:15:37;0.20;;;0.20;;
25187;SDS011;13141;50.414;8.050;2022-08-25T02:18:08;0.10;;;0.10;;
25187;SDS011;13141;50.414;8.050;2022-08-25T02:20:35;0.10;;;0.10;;
25187;SDS011;13141;50.414;8.050;2022-08-25T02:23:00;0.10;;;0.10;;
25187;SDS011;13141;50.414;8.050;2022-08-25T02:25:26;0.10;;;0.10;;
25187;SDS011;13141;50.414;8.050;2022-08-25T02:27:52;0.10;;;0.10;;
25187;SDS011;13141;50.414;8.050;2022-08-25T02:30:18;0.10;;;0.10;;
25187;SDS011;13141;50.414;8.050;2022-08-25T02:32:43;0.10;;;0.10;;
25187;SDS011;13141;50.414;8.050;2022-08-25T02:35:09;0.10;;;0.10;;
25187;SDS011;13141;50.414;8.050;2022-08-25T02:37:36;0.10;;;0.10;;
25187;SDS011;13141;50.414;8.050;2022-08-25T02:40:03;0.10;;;0.10;;
25187;SDS011;13141;50.414;8.050;2022-08-25T02:42:29;0.10;;;0.10;;
25187;SDS011;13141;50.414;8.050;2022-08-25T02:44:55;0.10;;;0.10;;
25187;SDS011;13141;50.414;8.050;2022-08-25T02:47:21;0.10;;;0.10;;
25187;SDS011;13141;50.414;8.050;2022-08-25T02:49:47;0.20;;;0.20;;
25187;SDS011;13141;50.414;8.050;2022-08-25T02:52:13;0.10;;;0.10;;
25187;SDS011;13141;50.414;8.050;2022-08-25T02:54:39;0.10;;;0.10;;
25187;SDS011;13141;50.414;8.050;2022-08-25T02:57:05;0.10;;;0.10;;
25187;SDS011;13141;50.414;8.050;2022-08-25T02:59:31;0.13;;;0.13;;
25187;SDS011;13141;50.414;8.050;2022-08-25T03:01:57;0.10;;;0.10;;
25187;SDS011;13141;50.414;8.050;2022-08-25T03:04:22;0.20;;;0.20;;
25187;SDS011;13141;50.414;8.050;2022-08-25T03:06:48;0.10;;;0.10;;
25187;SDS011;13141;50.414;8.050;2022-08-25T03:09:13;0.15;;;0.15;;
25187;SDS011;13141;50.414;8.050;2022-08-25T03:11:39;0.10;;;0.10;;
25187;SDS011;13141;50.414;8.050;2022-08-25T03:14:06;0.17;;;0.17;;
25187;SDS011;13141;50.414;8.050;2022-08-25T03:16:34;0.10;;;0.10;;
25187;SDS011;13141;50.414;8.050;2022-08-25T03:19:00;0.10;;;0.10;;
25187;SDS011;13141;50.414;8.050;2022-08-25T03:21:27;0.10;;;0.10;;
25187;SDS011;13141;50.414;8.050;2022-08-25T03:23:53;0.13;;;0.13;;
25187;SDS011;13141;50.414;8.050;2022-08-25T03:26:19;0.17;;;0.17;;
25187;SDS011;13141;50.414;8.050;2022-08-25T03:29:04;0.10;;;0.10;;
25187;SDS011;13141;50.414;8.050;2022-08-25T03:31:31;0.10;;;0.10;;
25187;SDS011;13141;50.414;8.050;2022-08-25T03:33:57;0.17;;;0.17;;
25187;SDS011;13141;50.414;8.050;2022-08-25T03:36:24;0.10;;;0.10;;
25187;SDS011;13141;50.414;8.050;2022-08-25T03:38:51;0.10;;;0.10;;
25187;SDS011;13141;50.414;8.050;2022-08-25T03:43:47;0.10;;;0.10;;
25187;SDS011;13141;50.414;8.050;2022-08-25T03:46:17;0.10;;;0.10;;
25187;SDS011;13141;50.414;8.050;2022-08-25T03:48:48;0.10;;;0.10;;
25187;SDS011;13141;50.414;8.050;2022-08-25T03:51:18;0.10;;;0.10;;
25187;SDS011;13141;50.414;8.050;2022-08-25T03:53:45;0.10;;;0.10;;
25187;SDS011;13141;50.414;8.050;2022-08-25T03:56:11;0.10;;;0.10;;
25187;SDS011;13141;50.414;8.050;2022-08-25T03:58:37;0.10;;;0.10;;
25187;SDS011;13141;50.414;8.050;2022-08-25T04:01:02;0.10;;;0.10;;
25187;SDS011;13141;50.414;8.050;2022-08-25T04:03:28;0.10;;;0.10;;
25187;SDS011;13141;50.414;8.050;2022-08-25T04:05:53;0.20;;;0.20;;
25187;SDS011;13141;50.414;8.050;2022-08-25T04:08:19;0.10;;;0.10;;
25187;SDS011;13141;50.414;8.050;2022-08-25T04:10:46;0.20;;;0.20;;
25187;SDS011;13141;50.414;8.050;2022-08-25T04:13:12;0.10;;;0.10;;
25187;SDS011;13141;50.414;8.050;2022-08-25T04:15:40;0.10;;;0.10;;
25187;SDS011;13141;50.414;8.050;2022-08-25T04:18:06;0.20;;;0.20;;
25187;SDS011;13141;50.414;8.050;2022-08-25T04:20:32;0.10;;;0.10;;
25187;SDS011;13141;50.414;8.050;2022-08-25T04:22:57;0.20;;;0.20;;
25187;SDS011;13141;50.414;8.050;2022-08-25T04:25:26;0.10;;;0.10;;
25187;SDS011;13141;50.414;8.050;2022-08-25T04:27:52;0.20;;;0.20;;
25187;SDS011;13141;50.414;8.050;2022-08-25T04:30:19;0.10;;;0.10;;
25187;SDS011;13141;50.414;8.050;2022-08-25T04:32:45;0.17;;;0.17;;
25187;SDS011;13141;50.414;8.050;2022-08-25T04:35:12;0.10;;;0.10;;
25187;SDS011;13141;50.414;8.050;2022-08-25T04:37:38;0.10;;;0.10;;
25187;SDS011;13141;50.414;8.050;2022-08-25T04:40:04;0.10;;;0.10;;
25187;SDS011;13141;50.414;8.050;2022-08-25T04:42:30;0.10;;;0.10;;
25187;SDS011;13141;50.414;8.050;2022-08-25T04:44:56;0.10;;;0.10;;
25187;SDS011;13141;50.414;8.050;2022-08-25T04:47:22;0.10;;;0.10;;
25187;SDS011;13141;50.414;8.050;2022-08-25T04:49:48;0.10;;;0.10;;
25187;SDS011;13141;50.414;8.050;2022-08-25T04:52:14;0.10;;;0.10;;
25187;SDS011;13141;50.414;8.050;2022-08-25T04:54:39;0.10;;;0.10;;
25187;SDS011;13141;50.414;8.050;2022-08-25T04:57:06;0.10;;;0.10;;
25187;SDS011;13141;50.414;8.050;2022-08-25T04:59:31;0.10;;;0.10;;
25187;SDS011;13141;50.414;8.050;2022-08-25T05:01:59;0.13;;;0.13;;
25187;SDS011;13141;50.414;8.050;2022-08-25T05:04:29;0.20;;;0.20;;
25187;SDS011;13141;50.414;8.050;2022-08-25T05:06:57;0.10;;;0.10;;
25187;SDS011;13141;50.414;8.050;2022-08-25T05:09:23;0.10;;;0.10;;
25187;SDS011;13141;50.414;8.050;2022-08-25T05:11:49;0.20;;;0.20;;
25187;SDS011;13141;50.414;8.050;2022-08-25T05:14:15;0.10;;;0.10;;
25187;SDS011;13141;50.414;8.050;2022-08-25T05:16:45;0.20;;;0.20;;
25187;SDS011;13141;50.414;8.050;2022-08-25T05:19:11;0.20;;;0.20;;
25187;SDS011;13141;50.414;8.050;2022-08-25T05:21:37;0.10;;;0.10;;
25187;SDS011;13141;50.414;8.050;2022-08-25T05:24:03;0.10;;;0.10;;
25187;SDS011;13141;50.414;8.050;2022-08-25T05:26:29;0.15;;;0.15;;
25187;SDS011;13141;50.414;8.050;2022-08-25T05:28:56;0.17;;;0.17;;
25187;SDS011;13141;50.414;8.050;2022-08-25T05:31:24;0.10;;;0.10;;
25187;SDS011;13141;50.414;8.050;2022-08-25T05:33:50;0.10;;;0.10;;
25187;SDS011;13141;50.414;8.050;2022-08-25T05:36:17;0.20;;;0.20;;
25187;SDS011;13141;50.414;8.050;2022-08-25T05:38:44;0.10;;;0.10;;
25187;SDS011;13141;50.414;8.050;2022-08-25T05:41:11;0.10;;;0.10;;
25187;SDS011;13141;50.414;8.050;2022-08-25T05:43:42;0.10;;;0.10;;
25187;SDS011;13141;50.414;8.050;2022-08-25T05:46:09;0.10;;;0.10;;
25187;SDS011;13141;50.414;8.050;2022-08-25T05:48:36;0.10;;;0.10;;
25187;SDS011;13141;50.414;8.050;2022-08-25T05:51:05;0.10;;;0.10;;
25187;SDS011;13141;50.414;8.050;2022-08-25T05:53:34;0.10;;;0.10;;
25187;SDS011;13141;50.414;8.050;2022-08-25T05:56:00;0.17;;;0.17;;
25187;SDS011;13141;50.414;8.050;2022-08-25T05:58:26;0.20;;;0.20;;
25187;SDS011;13141;50.414;8.050;2022-08-25T06:00:53;0.10;;;0.10;;
25187;SDS011;13141;50.414;8.050;2022-08-25T06:03:20;0.20;;;0.20;;
25187;SDS011;13141;50.414;8.050;2022-08-25T06:05:45;0.10;;;0.10;;
25187;SDS011;13141;50.414;8.050;2022-08-25T06:08:11;0.10;;;0.10;;
25187;SDS011;13141;50.414;8.050;2022-08-25T06:10:37;0.10;;;0.10;;
25187;SDS011;13141;50.414;8.050;2022-08-25T06:13:03;0.10;;;0.10;;
25187;SDS011;13141;50.414;8.050;2022-08-25T06:15:29;0.10;;;0.10;;
25187;SDS011;13141;50.414;8.050;2022-08-25T06:17:57;0.10;;;0.10;;
25187;SDS011;13141;50.414;8.050;2022-08-25T06:20:25;0.10;;;0.10;;
25187;SDS011;13141;50.414;8.050;2022-08-25T06:22:52;0.10;;;0.10;;
25187;SDS011;13141;50.414;8.050;2022-08-25T06:25:20;0.10;;;0.10;;
25187;SDS011;13141;50.414;8.050;2022-08-25T06:27:47;0.10;;;0.10;;
25187;SDS011;13141;50.414;8.050;2022-08-25T06:30:14;0.10;;;0.10;;
25187;SDS011;13141;50.414;8.050;2022-08-25T06:32:42;0.10;;;0.10;;
25187;SDS011;13141;50.414;8.050;2022-08-25T06:35:10;0.20;;;0.20;;
25187;SDS011;13141;50.414;8.050;2022-08-25T06:37:37;0.10;;;0.10;;
25187;SDS011;13141;50.414;8.050;2022-08-25T06:40:05;0.20;;;0.20;;
25187;SDS011;13141;50.414;8.050;2022-08-25T06:42:31;0.10;;;0.10;;
25187;SDS011;13141;50.414;8.050;2022-08-25T06:44:57;0.10;;;0.10;;
25187;SDS011;13141;50.414;8.050;2022-08-25T06:47:22;0.17;;;0.17;;
25187;SDS011;13141;50.414;8.050;2022-08-25T06:49:48;0.10;;;0.10;;
25187;SDS011;13141;50.414;8.050;2022-08-25T06:52:14;0.10;;;0.10;;
25187;SDS011;13141;50.414;8.050;2022-08-25T06:54:41;0.10;;;0.10;;
25187;SDS011;13141;50.414;8.050;2022-08-25T06:57:06;0.10;;;0.10;;
25187;SDS011;13141;50.414;8.050;2022-08-25T06:59:33;0.10;;;0.10;;
25187;SDS011;13141;50.414;8.050;2022-08-25T07:01:59;0.10;;;0.10;;
25187;SDS011;13141;50.414;8.050;2022-08-25T07:04:26;0.10;;;0.10;;
25187;SDS011;13141;50.414;8.050;2022-08-25T07:06:51;0.10;;;0.10;;
25187;SDS011;13141;50.414;8.050;2022-08-25T07:09:17;0.10;;;0.10;;
25187;SDS011;13141;50.414;8.050;2022-08-25T07:11:43;0.10;;;0.10;;
25187;SDS011;13141;50.414;8.050;2022-08-25T07:14:11;0.20;;;0.20;;
25187;SDS011;13141;50.414;8.050;2022-08-25T07:16:39;0.10;;;0.10;;
25187;SDS011;13141;50.414;8.050;2022-08-25T07:19:05;0.20;;;0.20;;
25187;SDS011;13141;50.414;8.050;2022-08-25T07:21:33;0.10;;;0.10;;
25187;SDS011;13141;50.414;8.050;2022-08-25T07:24:00;0.10;;;0.10;;
25187;SDS011;13141;50.414;8.050;2022-08-25T07:26:29;0.10;;;0.10;;
25187;SDS011;13141;50.414;8.050;2022-08-25T07:28:58;0.10;;;0.10;;
25187;SDS011;13141;50.414;8.050;2022-08-25T07:31:24;0.10;;;0.10;;
25187;SDS011;13141;50.414;8.050;2022-08-25T07:33:50;0.20;;;0.20;;
25187;SDS011;13141;50.414;8.050;2022-08-25T07:36:35;0.10;;;0.10;;
25187;SDS011;13141;50.414;8.050;2022-08-25T07:39:00;0.10;;;0.10;;
25187;SDS011;13141;50.414;8.050;2022-08-25T07:41:29;0.17;;;0.17;;
25187;SDS011;13141;50.414;8.050;2022-08-25T07:43:56;0.10;;;0.10;;
25187;SDS011;13141;50.414;8.050;2022-08-25T07:46:21;0.10;;;0.10;;
25187;SDS011;13141;50.414;8.050;2022-08-25T07:48:47;0.20;;;0.20;;
25187;SDS011;13141;50.414;8.050;2022-08-25T07:51:13;0.20;;;0.20;;
25187;SDS011;13141;50.414;8.050;2022-08-25T07:53:39;0.17;;;0.17;;
25187;SDS011;13141;50.414;8.050;2022-08-25T07:56:10;0.10;;;0.10;;
25187;SDS011;13141;50.414;8.050;2022-08-25T07:58:37;0.10;;;0.10;;
25187;SDS011;13141;50.414;8.050;2022-08-25T08:01:03;0.10;;;0.10;;
25187;SDS011;13141;50.414;8.050;2022-08-25T08:03:29;0.10;;;0.10;;
25187;SDS011;13141;50.414;8.050;2022-08-25T08:05:58;0.10;;;0.10;;
25187;SDS011;13141;50.414;8.050;2022-08-25T08:08:31;0.15;;;0.15;;
25187;SDS011;13141;50.414;8.050;2022-08-25T08:10:56;0.10;;;0.10;;
25187;SDS011;13141;50.414;8.050;2022-08-25T08:13:22;0.10;;;0.10;;
25187;SDS011;13141;50.414;8.050;2022-08-25T08:15:50;0.20;;;0.20;;
25187;SDS011;13141;50.414;8.050;2022-08-25T08:18:17;0.20;;;0.20;;
25187;SDS011;13141;50.414;8.050;2022-08-25T08:20:46;0.10;;;0.10;;
25187;SDS011;13141;50.414;8.050;2022-08-25T08:23:12;0.10;;;0.10;;
25187;SDS011;13141;50.414;8.050;2022-08-25T08:25:38;0.15;;;0.15;;
25187;SDS011;13141;50.414;8.050;2022-08-25T08:28:04;0.10;;;0.10;;
25187;SDS011;13141;50.414;8.050;2022-08-25T08:30:30;0.20;;;0.20;;
25187;SDS011;13141;50.414;8.050;2022-08-25T08:32:56;0.20;;;0.20;;
25187;SDS011;13141;50.414;8.050;2022-08-25T08:35:21;0.10;;;0.10;;
25187;SDS011;13141;50.414;8.050;2022-08-25T08:37:47;0.10;;;0.10;;
25187;SDS011;13141;50.414;8.050;2022-08-25T08:40:17;0.20;;;0.20;;
25187;SDS011;13141;50.414;8.050;2022-08-25T08:45:31;0.20;;;0.20;;
25187;SDS011;13141;50.414;8.050;2022-08-25T08:53:58;0.20;;;0.20;;
25187;SDS011;13141;50.414;8.050;2022-08-25T08:56:26;0.20;;;0.20;;
25187;SDS011;13141;50.414;8.050;2022-08-25T08:59:00;0.20;;;0.20;;
25187;SDS011;13141;50.414;8.050;2022-08-25T09:01:48;0.20;;;0.20;;
25187;SDS011;13141;50.414;8.050;2022-08-25T09:07:05;0.20;;;0.20;;
25187;SDS011;13141;50.414;8.050;2022-08-25T09:09:40;0.30;;;0.30;;
25187;SDS011;13141;50.414;8.050;2022-08-25T09:14:53;0.10;;;0.10;;
25187;SDS011;13141;50.414;8.050;2022-08-25T09:20:19;0.20;;;0.20;;
25187;SDS011;13141;50.414;8.050;2022-08-25T09:29:06;0.20;;;0.20;;
25187;SDS011;13141;50.414;8.050;2022-08-25T09:31:38;0.28;;;0.28;;
25187;SDS011;13141;50.414;8.050;2022-08-25T09:34:10;0.25;;;0.25;;
25187;SDS011;13141;50.414;8.050;2022-08-25T09:36:40;0.20;;;0.20;;
25187;SDS011;13141;50.414;8.050;2022-08-25T09:39:07;0.30;;;0.30;;
25187;SDS011;13141;50.414;8.050;2022-08-25T09:41:50;0.20;;;0.20;;
25187;SDS011;13141;50.414;8.050;2022-08-25T09:44:24;0.20;;;0.20;;
25187;SDS011;13141;50.414;8.050;2022-08-25T09:46:59;0.20;;;0.20;;
25187;SDS011;13141;50.414;8.050;2022-08-25T09:49:31;0.28;;;0.28;;
25187;SDS011;13141;50.414;8.050;2022-08-25T09:52:20;0.30;;;0.30;;
25187;SDS011;13141;50.414;8.050;2022-08-25T09:54:55;0.20;;;0.20;;
25187;SDS011;13141;50.414;8.050;2022-08-25T09:58:12;0.20;;;0.20;;
25187;SDS011;13141;50.414;8.050;2022-08-25T10:00:15;0.30;;;0.30;;
25187;SDS011;13141;50.414;8.050;2022-08-25T10:08:26;0.28;;;0.28;;
25187;SDS011;13141;50.414;8.050;2022-08-25T10:10:56;0.30;;;0.30;;
25187;SDS011;13141;50.414;8.050;2022-08-25T10:13:44;0.20;;;0.20;;
25187;SDS011;13141;50.414;8.050;2022-08-25T10:16:29;0.30;;;0.30;;
25187;SDS011;13141;50.414;8.050;2022-08-25T10:19:04;0.20;;;0.20;;
25187;SDS011;13141;50.414;8.050;2022-08-25T10:21:45;0.32;;;0.32;;
25187;SDS011;13141;50.414;8.050;2022-08-25T10:24:35;0.25;;;0.25;;
25187;SDS011;13141;50.414;8.050;2022-08-25T10:35:44;0.20;;;0.20;;
25187;SDS011;13141;50.414;8.050;2022-08-25T10:40:58;0.30;;;0.30;;
25187;SDS011;13141;50.414;8.050;2022-08-25T10:43:57;0.32;;;0.32;;
25187;SDS011;13141;50.414;8.050;2022-08-25T10:49:51;0.40;;;0.40;;
25187;SDS011;13141;50.414;8.050;2022-08-25T10:55:12;0.37;;;0.37;;
25187;SDS011;13141;50.414;8.050;2022-08-25T11:00:10;0.30;;;0.30;;
25187;SDS011;13141;50.414;8.050;2022-08-25T11:05:24;0.30;;;0.30;;
25187;SDS011;13141;50.414;8.050;2022-08-25T11:10:59;0.30;;;0.30;;
25187;SDS011;13141;50.414;8.050;2022-08-25T11:16:11;0.30;;;0.30;;
25187;SDS011;13141;50.414;8.050;2022-08-25T11:18:48;0.30;;;0.30;;
25187;SDS011;13141;50.414;8.050;2022-08-25T11:21:19;0.30;;;0.30;;
25187;SDS011;13141;50.414;8.050;2022-08-25T11:23:57;0.40;;;0.40;;
25187;SDS011;13141;50.414;8.050;2022-08-25T11:26:33;0.30;;;0.30;;
25187;SDS011;13141;50.414;8.050;2022-08-25T11:31:36;0.30;;;0.30;;
25187;SDS011;13141;50.414;8.050;2022-08-25T11:34:07;0.30;;;0.30;;
25187;SDS011;13141;50.414;8.050;2022-08-25T11:36:35;0.30;;;0.30;;
25187;SDS011;13141;50.414;8.050;2022-08-25T11:44:53;0.30;;;0.30;;
25187;SDS011;13141;50.414;8.050;2022-08-25T11:50:07;0.35;;;0.35;;
25187;SDS011;13141;50.414;8.050;2022-08-25T11:55:45;0.30;;;0.30;;
25187;SDS011;13141;50.414;8.050;2022-08-25T12:04:42;0.30;;;0.30;;
25187;SDS011;13141;50.414;8.050;2022-08-25T12:09:31;0.30;;;0.30;;
25187;SDS011;13141;50.414;8.050;2022-08-25T12:11:58;0.40;;;0.40;;
25187;SDS011;13141;50.414;8.050;2022-08-25T12:14:53;0.20;;;0.20;;
25187;SDS011;13141;50.414;8.050;2022-08-25T12:17:20;0.37;;;0.37;;
25187;SDS011;13141;50.414;8.050;2022-08-25T12:19:52;0.28;;;0.28;;
25187;SDS011;13141;50.414;8.050;2022-08-25T12:24:50;0.30;;;0.30;;
25187;SDS011;13141;50.414;8.050;2022-08-25T12:32:33;0.20;;;0.20;;
25187;SDS011;13141;50.414;8.050;2022-08-25T12:45:48;0.20;;;0.20;;
25187;SDS011;13141;50.414;8.050;2022-08-25T12:54:15;0.30;;;0.30;;
25187;SDS011;13141;50.414;8.050;2022-08-25T12:56:41;0.30;;;0.30;;
25187;SDS011;13141;50.414;8.050;2022-08-25T13:13:51;0.30;;;0.30;;
25187;SDS011;13141;50.414;8.050;2022-08-25T13:16:32;0.30;;;0.30;;
25187;SDS011;13141;50.414;8.050;2022-08-25T13:18:58;0.30;;;0.30;;
25187;SDS011;13141;50.414;8.050;2022-08-25T13:21:32;0.30;;;0.30;;
25187;SDS011;13141;50.414;8.050;2022-08-25T13:24:08;0.40;;;0.40;;
25187;SDS011;13141;50.414;8.050;2022-08-25T13:26:41;0.20;;;0.20;;
25187;SDS011;13141;50.414;8.050;2022-08-25T13:31:35;0.20;;;0.20;;
25187;SDS011;13141;50.414;8.050;2022-08-25T13:34:06;0.37;;;0.37;;
25187;SDS011;13141;50.414;8.050;2022-08-25T13:36:45;0.30;;;0.30;;
25187;SDS011;13141;50.414;8.050;2022-08-25T13:39:30;0.20;;;0.20;;
25187;SDS011;13141;50.414;8.050;2022-08-25T13:42:00;0.30;;;0.30;;
25187;SDS011;13141;50.414;8.050;2022-08-25T13:44:28;0.35;;;0.35;;
25187;SDS011;13141;50.414;8.050;2022-08-25T13:49:43;0.30;;;0.30;;
25187;SDS011;13141;50.414;8.050;2022-08-25T13:52:18;0.40;;;0.40;;
25187;SDS011;13141;50.414;8.050;2022-08-25T13:54:51;0.30;;;0.30;;
25187;SDS011;13141;50.414;8.050;2022-08-25T13:57:22;0.40;;;0.40;;
25187;SDS011;13141;50.414;8.050;2022-08-25T13:59:52;0.35;;;0.35;;
25187;SDS011;13141;50.414;8.050;2022-08-25T14:05:07;0.40;;;0.40;;
25187;SDS011;13141;50.414;8.050;2022-08-25T14:07:33;0.50;;;0.50;;
25187;SDS011;13141;50.414;8.050;2022-08-25T14:10:01;0.40;;;0.40;;
25187;SDS011;13141;50.414;8.050;2022-08-25T14:20:38;0.30;;;0.30;;
25187;SDS011;13141;50.414;8.050;2022-08-25T14:23:10;0.32;;;0.32;;
25187;SDS011;13141;50.414;8.050;2022-08-25T14:25:39;0.30;;;0.30;;
25187;SDS011;13141;50.414;8.050;2022-08-25T14:28:07;0.32;;;0.32;;
25187;SDS011;13141;50.414;8.050;2022-08-25T14:30:40;0.40;;;0.40;;
25187;SDS011;13141;50.414;8.050;2022-08-25T14:33:08;0.22;;;0.22;;
25187;SDS011;13141;50.414;8.050;2022-08-25T14:35:34;0.22;;;0.22;;
25187;SDS011;13141;50.414;8.050;2022-08-25T14:38:06;0.40;;;0.40;;
25187;SDS011;13141;50.414;8.050;2022-08-25T14:40:34;0.20;;;0.20;;
25187;SDS011;13141;50.414;8.050;2022-08-25T14:42:59;0.32;;;0.32;;
25187;SDS011;13141;50.414;8.050;2022-08-25T14:45:25;0.40;;;0.40;;
25187;SDS011;13141;50.414;8.050;2022-08-25T14:47:51;0.40;;;0.40;;
25187;SDS011;13141;50.414;8.050;2022-08-25T14:50:17;0.22;;;0.22;;
25187;SDS011;13141;50.414;8.050;2022-08-25T14:52:43;0.30;;;0.30;;
25187;SDS011;13141;50.414;8.050;2022-08-25T14:55:09;0.30;;;0.30;;
25187;SDS011;13141;50.414;8.050;2022-08-25T14:57:36;0.30;;;0.30;;
25187;SDS011;13141;50.414;8.050;2022-08-25T15:00:03;0.37;;;0.37;;
25187;SDS011;13141;50.414;8.050;2022-08-25T15:02:32;0.30;;;0.30;;
25187;SDS011;13141;50.414;8.050;2022-08-25T15:05:02;0.40;;;0.40;;
25187;SDS011;13141;50.414;8.050;2022-08-25T15:07:31;0.20;;;0.20;;
25187;SDS011;13141;50.414;8.050;2022-08-25T15:10:16;0.40;;;0.40;;
25187;SDS011;13141;50.414;8.050;2022-08-25T15:12:41;0.20;;;0.20;;
25187;SDS011;13141;50.414;8.050;2022-08-25T15:15:08;0.35;;;0.35;;
25187;SDS011;13141;50.414;8.050;2022-08-25T15:17:34;0.47;;;0.47;;
25187;SDS011;13141;50.414;8.050;2022-08-25T15:20:00;0.30;;;0.30;;
25187;SDS011;13141;50.414;8.050;2022-08-25T15:22:26;0.25;;;0.25;;
25187;SDS011;13141;50.414;8.050;2022-08-25T15:24:51;0.25;;;0.25;;
25187;SDS011;13141;50.414;8.050;2022-08-25T15:27:18;0.28;;;0.28;;
25187;SDS011;13141;50.414;8.050;2022-08-25T15:29:44;0.30;;;0.30;;
25187;SDS011;13141;50.414;8.050;2022-08-25T15:32:10;0.30;;;0.30;;
25187;SDS011;13141;50.414;8.050;2022-08-25T15:34:36;0.30;;;0.30;;
25187;SDS011;13141;50.414;8.050;2022-08-25T15:37:09;0.30;;;0.30;;
25187;SDS011;13141;50.414;8.050;2022-08-25T15:39:37;0.20;;;0.20;;
25187;SDS011;13141;50.414;8.050;2022-08-25T15:42:04;0.20;;;0.20;;
25187;SDS011;13141;50.414;8.050;2022-08-25T15:44:30;0.20;;;0.20;;
25187;SDS011;13141;50.414;8.050;2022-08-25T15:46:57;0.20;;;0.20;;
25187;SDS011;13141;50.414;8.050;2022-08-25T15:49:23;0.22;;;0.22;;
25187;SDS011;13141;50.414;8.050;2022-08-25T15:51:50;0.30;;;0.30;;
25187;SDS011;13141;50.414;8.050;2022-08-25T15:54:17;0.30;;;0.30;;
25187;SDS011;13141;50.414;8.050;2022-08-25T15:56:44;0.20;;;0.20;;
25187;SDS011;13141;50.414;8.050;2022-08-25T15:59:11;0.30;;;0.30;;
25187;SDS011;13141;50.414;8.050;2022-08-25T16:01:37;0.30;;;0.30;;
25187;SDS011;13141;50.414;8.050;2022-08-25T16:04:03;0.30;;;0.30;;
25187;SDS011;13141;50.414;8.050;2022-08-25T16:06:29;0.20;;;0.20;;
25187;SDS011;13141;50.414;8.050;2022-08-25T16:08:55;0.40;;;0.40;;
25187;SDS011;13141;50.414;8.050;2022-08-25T16:11:25;0.37;;;0.37;;
25187;SDS011;13141;50.414;8.050;2022-08-25T16:13:53;0.20;;;0.20;;
25187;SDS011;13141;50.414;8.050;2022-08-25T16:16:20;0.20;;;0.20;;
25187;SDS011;13141;50.414;8.050;2022-08-25T16:18:48;0.30;;;0.30;;
25187;SDS011;13141;50.414;8.050;2022-08-25T16:21:16;0.30;;;0.30;;
25187;SDS011;13141;50.414;8.050;2022-08-25T16:23:54;0.30;;;0.30;;
25187;SDS011;13141;50.414;8.050;2022-08-25T16:26:21;0.30;;;0.30;;
25187;SDS011;13141;50.414;8.050;2022-08-25T16:28:47;0.30;;;0.30;;
25187;SDS011;13141;50.414;8.050;2022-08-25T16:31:14;0.40;;;0.40;;
25187;SDS011;13141;50.414;8.050;2022-08-25T16:33:41;0.30;;;0.30;;
25187;SDS011;13141;50.414;8.050;2022-08-25T16:38:34;0.30;;;0.30;;
25187;SDS011;13141;50.414;8.050;2022-08-25T16:41:04;0.20;;;0.20;;
25187;SDS011;13141;50.414;8.050;2022-08-25T16:43:30;0.30;;;0.30;;
25187;SDS011;13141;50.414;8.050;2022-08-25T16:45:56;0.22;;;0.22;;
25187;SDS011;13141;50.414;8.050;2022-08-25T16:48:27;0.30;;;0.30;;
25187;SDS011;13141;50.414;8.050;2022-08-25T16:50:53;0.25;;;0.25;;
25187;SDS011;13141;50.414;8.050;2022-08-25T16:53:19;0.40;;;0.40;;
25187;SDS011;13141;50.414;8.050;2022-08-25T16:56:03;0.30;;;0.30;;
25187;SDS011;13141;50.414;8.050;2022-08-25T16:58:30;0.30;;;0.30;;
25187;SDS011;13141;50.414;8.050;2022-08-25T17:01:04;0.40;;;0.40;;
25187;SDS011;13141;50.414;8.050;2022-08-25T17:03:30;0.30;;;0.30;;
25187;SDS011;13141;50.414;8.050;2022-08-25T17:05:57;0.30;;;0.30;;
25187;SDS011;13141;50.414;8.050;2022-08-25T17:08:23;0.32;;;0.32;;
25187;SDS011;13141;50.414;8.050;2022-08-25T17:13:53;0.30;;;0.30;;
25187;SDS011;13141;50.414;8.050;2022-08-25T17:16:21;0.20;;;0.20;;
25187;SDS011;13141;50.414;8.050;2022-08-25T17:18:51;0.30;;;0.30;;
25187;SDS011;13141;50.414;8.050;2022-08-25T17:21:17;0.40;;;0.40;;
25187;SDS011;13141;50.414;8.050;2022-08-25T17:23:45;0.30;;;0.30;;